createdAt,value
2022-08-17T00:00:34.981Z,15.41
2022-08-17T00:03:09.978Z,15.32
2022-08-17T00:05:41.990Z,15.21
2022-08-17T00:08:11.703Z,15.23
2022-08-17T00:10:39.884Z,15.19
2022-08-17T00:13:09.899Z,15.13
2022-08-17T00:15:38.069Z,15.22
2022-08-17T00:19:02.015Z,15.21
2022-08-17T00:20:54.814Z,15.10
2022-08-17T00:23:24.542Z,15.02
2022-08-17T00:25:53.379Z,14.98
2022-08-17T00:28:21.890Z,14.87
2022-08-17T00:30:53.516Z,14.88
2022-08-17T00:33:25.695Z,14.89
2022-08-17T00:35:54.647Z,14.97
2022-08-17T00:38:24.441Z,14.89
2022-08-17T00:40:56.001Z,14.97
2022-08-17T00:43:32.187Z,14.98
2022-08-17T00:46:02.017Z,14.93
2022-08-17T00:48:30.925Z,14.85
2022-08-17T00:51:06.980Z,14.84
2022-08-17T00:53:41.914Z,14.75
2022-08-17T00:56:16.502Z,14.67
2022-08-17T00:58:44.492Z,14.59
2022-08-17T01:01:21.283Z,14.63
2022-08-17T01:03:50.784Z,14.51
2022-08-17T01:06:19.161Z,14.46
2022-08-17T01:08:48.879Z,14.46
2022-08-17T01:11:26.041Z,14.44
2022-08-17T01:13:54.255Z,14.46
2022-08-17T01:16:24.810Z,14.47
2022-08-17T01:18:55.536Z,14.38
2022-08-17T01:21:30.784Z,14.27
2022-08-17T01:24:00.874Z,14.23
2022-08-17T01:26:29.737Z,14.21
2022-08-17T01:28:57.872Z,14.20
2022-08-17T01:31:30.214Z,14.25
2022-08-17T01:33:59.524Z,14.24
2022-08-17T01:36:30.502Z,14.17
2022-08-17T01:39:00.183Z,14.33
2022-08-17T01:41:28.557Z,14.32
2022-08-17T01:43:59.030Z,14.26
2022-08-17T01:46:28.961Z,14.14
2022-08-17T01:48:57.952Z,14.06
2022-08-17T01:51:27.596Z,14.22
2022-08-17T01:53:58.252Z,14.11
2022-08-17T01:56:30.480Z,14.08
2022-08-17T01:58:58.460Z,14.11
2022-08-17T02:01:29.538Z,13.99
2022-08-17T02:04:01.136Z,14.07
2022-08-17T02:06:31.358Z,13.89
2022-08-17T02:09:16.800Z,13.78
2022-08-17T02:11:46.985Z,13.76
2022-08-17T02:14:15.459Z,13.71
2022-08-17T02:16:43.499Z,13.65
2022-08-17T02:19:13.934Z,13.55
2022-08-17T02:21:43.000Z,13.69
2022-08-17T02:24:13.781Z,13.66
2022-08-17T02:26:42.047Z,13.68
2022-08-17T02:29:12.075Z,13.63
2022-08-17T02:31:40.025Z,13.60
2022-08-17T02:34:08.248Z,13.57
2022-08-17T02:36:37.041Z,13.49
2022-08-17T02:39:06.945Z,13.55
2022-08-17T02:41:35.525Z,13.59
2022-08-17T02:44:03.840Z,13.52
2022-08-17T02:46:33.230Z,13.45
2022-08-17T02:49:01.535Z,13.55
2022-08-17T02:51:29.821Z,13.60
2022-08-17T02:54:03.875Z,13.61
2022-08-17T02:56:45.735Z,13.59
2022-08-17T02:59:13.786Z,13.74
2022-08-17T03:01:43.238Z,13.59
2022-08-17T03:04:11.283Z,13.58
2022-08-17T03:06:39.293Z,13.54
2022-08-17T03:09:07.283Z,13.55
2022-08-17T03:11:35.491Z,13.52
2022-08-17T03:14:03.502Z,13.48
2022-08-17T03:16:31.470Z,13.43
2022-08-17T03:19:00.789Z,13.39
2022-08-17T03:21:28.922Z,13.33
2022-08-17T03:23:56.894Z,13.30
2022-08-17T03:26:24.871Z,13.28
2022-08-17T03:28:57.676Z,13.28
2022-08-17T03:31:25.683Z,13.30
2022-08-17T03:33:53.690Z,13.29
2022-08-17T03:36:23.059Z,13.34
2022-08-17T03:38:51.148Z,13.27
2022-08-17T03:41:19.175Z,13.23
2022-08-17T03:43:47.146Z,13.23
2022-08-17T03:46:34.742Z,13.39
2022-08-17T03:49:21.130Z,13.43
2022-08-17T03:52:07.824Z,13.26
2022-08-17T03:54:53.063Z,13.22
2022-08-17T03:57:21.093Z,13.23
2022-08-17T03:59:49.499Z,13.22
2022-08-17T04:02:19.607Z,13.27
2022-08-17T04:04:50.757Z,13.22
2022-08-17T04:07:21.165Z,13.26
2022-08-17T04:09:49.275Z,13.11
2022-08-17T04:12:18.109Z,13.20
2022-08-17T04:14:52.793Z,13.39
2022-08-17T04:17:23.375Z,13.59
2022-08-17T04:19:51.398Z,13.47
2022-08-17T04:22:30.773Z,13.50
2022-08-17T04:25:02.957Z,13.55
2022-08-17T04:27:30.970Z,13.49
2022-08-17T04:29:59.587Z,13.55
2022-08-17T04:33:03.782Z,14.05
2022-08-17T04:35:19.602Z,14.02
2022-08-17T04:37:48.945Z,14.22
2022-08-17T04:40:35.293Z,14.28
2022-08-17T04:43:05.442Z,14.59
2022-08-17T04:45:33.485Z,14.56
2022-08-17T04:48:02.148Z,14.97
2022-08-17T04:50:30.145Z,15.06
2022-08-17T04:52:59.772Z,15.01
2022-08-17T04:55:28.047Z,15.23
2022-08-17T04:57:56.009Z,15.38
2022-08-17T05:00:25.879Z,15.59
2022-08-17T05:02:55.843Z,16.39
2022-08-17T05:05:29.124Z,17.10
2022-08-17T05:08:02.244Z,18.30
2022-08-17T05:10:33.071Z,19.02
2022-08-17T05:13:01.657Z,19.94
2022-08-17T05:15:33.135Z,20.67
2022-08-17T05:18:03.959Z,20.90
2022-08-17T05:20:32.830Z,21.36
2022-08-17T05:23:07.119Z,21.89
2022-08-17T05:25:37.528Z,22.33
2022-08-17T05:28:06.631Z,22.55
2022-08-17T05:30:36.343Z,23.32
2022-08-17T05:33:06.483Z,23.33
2022-08-17T05:35:37.452Z,23.54
2022-08-17T05:38:08.068Z,22.85
2022-08-17T05:40:36.360Z,23.99
2022-08-17T05:43:09.320Z,24.12
2022-08-17T05:45:55.575Z,25.03
2022-08-17T05:48:39.690Z,25.60
2022-08-17T05:51:31.570Z,25.65
2022-08-17T05:54:11.174Z,25.50
2022-08-17T05:56:53.105Z,25.40
2022-08-17T05:59:27.518Z,25.68
2022-08-17T06:01:59.664Z,26.11
2022-08-17T06:04:32.369Z,26.43
2022-08-17T06:07:08.154Z,27.38
2022-08-17T06:09:41.971Z,27.67
2022-08-17T06:12:37.181Z,28.20
2022-08-17T06:15:15.302Z,28.78
2022-08-17T06:17:43.670Z,29.14
2022-08-17T06:20:13.801Z,28.37
2022-08-17T06:22:45.767Z,28.29
2022-08-17T06:25:18.027Z,28.14
2022-08-17T06:27:53.383Z,28.39
2022-08-17T06:30:24.957Z,28.75
2022-08-17T06:32:55.179Z,28.52
2022-08-17T06:35:32.034Z,28.94
2022-08-17T06:38:07.346Z,28.61
2022-08-17T06:40:49.343Z,28.69
2022-08-17T06:43:26.898Z,28.54
2022-08-17T06:45:58.886Z,28.61
2022-08-17T06:48:33.287Z,28.88
2022-08-17T06:51:05.928Z,28.91
2022-08-17T06:53:40.101Z,28.70
2022-08-17T06:56:10.865Z,28.74
2022-08-17T06:58:40.560Z,28.84
2022-08-17T07:01:11.377Z,28.93
2022-08-17T07:03:42.449Z,28.31
2022-08-17T07:06:14.780Z,28.72
2022-08-17T07:08:51.180Z,28.03
2022-08-17T07:11:24.825Z,27.35
2022-08-17T07:14:01.379Z,27.89
2022-08-17T07:16:34.364Z,27.35
2022-08-17T07:19:02.545Z,27.65
2022-08-17T07:21:40.794Z,28.41
2022-08-17T07:24:29.725Z,28.49
2022-08-17T07:27:10.454Z,28.81
2022-08-17T07:29:41.815Z,29.23
2022-08-17T07:32:11.718Z,29.01
2022-08-17T07:35:12.981Z,29.32
2022-08-17T07:37:45.304Z,28.98
2022-08-17T07:40:23.709Z,29.20
2022-08-17T07:43:25.394Z,29.40
2022-08-17T07:46:33.409Z,29.02
2022-08-17T07:49:23.583Z,29.46
2022-08-17T07:52:48.394Z,28.35
2022-08-17T07:54:48.536Z,29.06
2022-08-17T07:57:31.913Z,28.65
2022-08-17T08:00:19.525Z,29.58
2022-08-17T08:03:23.690Z,30.42
2022-08-17T08:06:00.219Z,30.13
2022-08-17T08:08:40.753Z,29.69
2022-08-17T08:11:10.594Z,29.82
2022-08-17T08:13:45.109Z,29.45
2022-08-17T08:16:20.989Z,29.41
2022-08-17T08:18:55.619Z,29.66
2022-08-17T08:21:37.029Z,29.68
2022-08-17T08:24:22.638Z,29.95
2022-08-17T08:26:56.581Z,29.99
2022-08-17T08:29:29.362Z,29.72
2022-08-17T08:32:04.855Z,30.04
2022-08-17T08:35:01.490Z,29.92
2022-08-17T08:37:44.802Z,30.47
2022-08-17T08:40:28.009Z,30.71
2022-08-17T08:43:03.499Z,30.99
2022-08-17T08:45:39.150Z,30.48
2022-08-17T08:48:52.923Z,29.59
2022-08-17T08:51:08.648Z,29.86
2022-08-17T08:53:47.801Z,30.00
2022-08-17T08:56:23.487Z,29.27
2022-08-17T08:58:59.226Z,29.57
2022-08-17T09:01:32.538Z,29.57
2022-08-17T09:04:24.776Z,29.96
2022-08-17T09:07:02.096Z,30.41
2022-08-17T09:09:42.228Z,30.47
2022-08-17T09:12:16.840Z,29.78
2022-08-17T09:14:59.548Z,29.83
2022-08-17T09:17:35.573Z,30.02
2022-08-17T09:20:28.082Z,30.22
2022-08-17T09:22:59.796Z,30.37
2022-08-17T09:25:31.127Z,30.97
2022-08-17T09:28:03.717Z,31.05
2022-08-17T09:30:38.520Z,30.54
2022-08-17T09:33:09.319Z,30.46
2022-08-17T09:35:43.774Z,31.43
2022-08-17T09:38:22.615Z,31.63
2022-08-17T09:40:54.555Z,31.47
2022-08-17T09:43:31.491Z,31.61
2022-08-17T09:46:02.946Z,31.72
2022-08-17T09:48:34.226Z,32.24
2022-08-17T09:51:07.396Z,32.68
2022-08-17T09:53:37.560Z,32.86
2022-08-17T09:56:19.849Z,33.17
2022-08-17T09:59:03.384Z,33.11
2022-08-17T10:01:36.887Z,32.65
2022-08-17T10:04:14.190Z,32.93
2022-08-17T10:06:51.255Z,32.50
2022-08-17T10:09:37.363Z,31.55
2022-08-17T10:12:21.496Z,32.27
2022-08-17T10:15:08.010Z,33.12
2022-08-17T10:17:44.326Z,32.66
2022-08-17T10:20:15.514Z,32.66
2022-08-17T10:23:05.448Z,32.09
2022-08-17T10:25:55.426Z,31.87
2022-08-17T10:28:29.830Z,31.96
2022-08-17T10:33:57.749Z,32.57
2022-08-17T10:36:30.050Z,32.02
2022-08-17T10:39:08.717Z,32.02
2022-08-17T10:41:42.720Z,32.62
2022-08-17T10:44:38.077Z,32.65
2022-08-17T10:47:08.825Z,32.40
2022-08-17T10:49:38.700Z,31.99
2022-08-17T10:52:48.705Z,31.73
2022-08-17T10:55:20.433Z,32.36
2022-08-17T10:57:50.771Z,32.13
2022-08-17T11:01:12.704Z,32.01
2022-08-17T11:03:53.432Z,31.71
2022-08-17T11:06:26.848Z,31.62
2022-08-17T11:09:07.665Z,32.57
2022-08-17T11:12:11.735Z,32.03
2022-08-17T11:14:57.945Z,32.00
2022-08-17T11:17:41.512Z,33.12
2022-08-17T11:20:22.439Z,33.23
2022-08-17T11:23:37.443Z,33.27
2022-08-17T11:26:23.115Z,33.79
2022-08-17T11:28:56.293Z,34.32
2022-08-17T11:31:39.117Z,34.47
2022-08-17T11:34:14.493Z,34.58
2022-08-17T11:37:13.374Z,34.06
2022-08-17T11:40:05.624Z,33.97
2022-08-17T11:42:47.285Z,34.13
2022-08-17T11:45:33.121Z,33.91
2022-08-17T11:48:28.425Z,33.55
2022-08-17T11:51:19.042Z,33.26
2022-08-17T11:54:31.614Z,32.53
2022-08-17T11:57:25.333Z,32.99
2022-08-17T12:00:11.245Z,34.13
2022-08-17T12:02:48.866Z,34.49
2022-08-17T12:05:35.600Z,32.72
2022-08-17T12:08:22.447Z,32.99
2022-08-17T12:11:00.501Z,33.02
2022-08-17T12:13:34.679Z,32.83
2022-08-17T12:16:16.853Z,33.64
2022-08-17T12:19:08.633Z,32.54
2022-08-17T12:21:43.458Z,33.25
2022-08-17T12:24:21.593Z,33.51
2022-08-17T12:26:53.453Z,34.31
2022-08-17T12:29:35.876Z,34.36
2022-08-17T12:32:08.444Z,33.51
2022-08-17T12:34:40.848Z,33.32
2022-08-17T12:37:15.789Z,33.56
2022-08-17T12:39:52.361Z,33.70
2022-08-17T12:42:26.925Z,33.71
2022-08-17T12:44:54.922Z,33.20
2022-08-17T12:47:23.331Z,33.18
2022-08-17T12:49:54.515Z,32.53
2022-08-17T12:52:25.158Z,32.65
2022-08-17T12:54:56.083Z,32.98
2022-08-17T12:57:26.032Z,33.79
2022-08-17T12:59:59.488Z,34.27
2022-08-17T13:02:38.477Z,34.53
2022-08-17T13:05:10.229Z,34.77
2022-08-17T13:07:43.584Z,34.85
2022-08-17T13:10:22.130Z,34.82
2022-08-17T13:12:50.940Z,35.07
2022-08-17T13:15:22.702Z,34.29
2022-08-17T13:17:58.726Z,33.32
2022-08-17T13:20:28.155Z,33.31
2022-08-17T13:22:58.243Z,33.25
2022-08-17T13:25:26.954Z,33.07
2022-08-17T13:27:56.091Z,33.46
2022-08-17T13:30:28.140Z,33.60
2022-08-17T13:32:57.810Z,34.23
2022-08-17T13:35:41.409Z,33.50
2022-08-17T13:38:13.847Z,34.02
2022-08-17T13:40:46.173Z,33.63
2022-08-17T13:43:44.586Z,33.42
2022-08-17T13:46:19.704Z,32.86
2022-08-17T13:48:58.801Z,32.64
2022-08-17T13:51:31.360Z,32.70
2022-08-17T13:54:02.563Z,33.19
2022-08-17T13:56:47.220Z,33.54
2022-08-17T13:59:17.937Z,33.85
2022-08-17T14:02:07.127Z,33.82
2022-08-17T14:04:35.568Z,33.78
2022-08-17T14:07:25.022Z,33.20
2022-08-17T14:09:55.905Z,33.60
2022-08-17T14:12:26.265Z,33.66
2022-08-17T14:14:56.487Z,33.39
2022-08-17T14:17:24.592Z,32.79
2022-08-17T14:19:53.239Z,32.57
2022-08-17T14:22:26.996Z,32.48
2022-08-17T14:24:55.105Z,32.02
2022-08-17T14:27:24.416Z,32.17
2022-08-17T14:29:53.293Z,32.13
2022-08-17T14:32:23.703Z,32.25
2022-08-17T14:34:52.821Z,32.41
2022-08-17T14:37:25.422Z,32.41
2022-08-17T14:39:55.827Z,32.42
2022-08-17T14:42:25.935Z,32.39
2022-08-17T14:44:54.249Z,32.83
2022-08-17T14:47:22.425Z,32.38
2022-08-17T14:49:50.472Z,32.46
2022-08-17T14:52:21.799Z,32.81
2022-08-17T14:54:52.245Z,32.89
2022-08-17T14:57:33.028Z,32.69
2022-08-17T15:00:03.147Z,32.58
2022-08-17T15:02:31.380Z,32.43
2022-08-17T15:05:00.436Z,32.68
2022-08-17T15:07:30.456Z,32.22
2022-08-17T15:10:01.435Z,32.24
2022-08-17T15:12:34.639Z,32.25
2022-08-17T15:15:04.887Z,32.02
2022-08-17T15:17:44.702Z,32.00
2022-08-17T15:20:15.953Z,32.03
2022-08-17T15:22:45.080Z,32.06
2022-08-17T15:25:15.455Z,31.95
2022-08-17T15:27:44.070Z,31.98
2022-08-17T15:30:13.376Z,31.84
2022-08-17T15:32:51.009Z,32.01
2022-08-17T15:35:27.514Z,31.77
2022-08-17T15:37:58.302Z,31.73
2022-08-17T15:40:27.971Z,31.67
2022-08-17T15:42:57.739Z,31.63
2022-08-17T15:45:28.365Z,31.39
2022-08-17T15:47:56.390Z,31.22
2022-08-17T15:50:24.358Z,31.11
2022-08-17T15:52:57.911Z,31.10
2022-08-17T15:55:29.063Z,31.02
2022-08-17T15:57:57.149Z,31.04
2022-08-17T16:00:28.138Z,30.98
2022-08-17T16:03:45.126Z,30.99
2022-08-17T16:05:44.437Z,30.93
2022-08-17T16:08:20.164Z,30.95
2022-08-17T16:10:51.181Z,30.99
2022-08-17T16:13:20.102Z,30.96
2022-08-17T16:15:57.196Z,30.72
2022-08-17T16:18:28.303Z,30.75
2022-08-17T16:20:56.986Z,30.83
2022-08-17T16:23:25.406Z,30.79
2022-08-17T16:25:54.768Z,30.90
2022-08-17T16:28:23.286Z,30.87
2022-08-17T16:31:08.041Z,30.92
2022-08-17T16:33:37.712Z,30.93
2022-08-17T16:36:08.125Z,30.91
2022-08-17T16:38:36.590Z,30.87
2022-08-17T16:41:06.805Z,30.63
2022-08-17T16:43:35.016Z,30.74
2022-08-17T16:46:03.326Z,30.61
2022-08-17T16:48:31.529Z,30.72
2022-08-17T16:51:04.297Z,30.69
2022-08-17T16:53:32.933Z,30.73
2022-08-17T16:56:00.922Z,30.61
2022-08-17T16:58:30.291Z,30.46
2022-08-17T17:00:59.714Z,30.34
2022-08-17T17:03:29.901Z,30.18
2022-08-17T17:06:06.536Z,30.17
2022-08-17T17:08:42.059Z,30.04
2022-08-17T17:11:14.109Z,29.79
2022-08-17T17:13:48.173Z,29.70
2022-08-17T17:16:20.823Z,29.60
2022-08-17T17:19:01.658Z,29.47
2022-08-17T17:21:34.371Z,29.34
2022-08-17T17:24:06.102Z,29.28
2022-08-17T17:26:58.851Z,29.14
2022-08-17T17:29:47.753Z,29.04
2022-08-17T17:32:21.921Z,28.98
2022-08-17T17:34:54.186Z,28.91
2022-08-17T17:37:26.978Z,28.79
2022-08-17T17:39:58.107Z,28.57
2022-08-17T17:42:31.293Z,28.35
2022-08-17T17:45:07.630Z,28.05
2022-08-17T17:47:36.864Z,27.87
2022-08-17T17:50:06.610Z,27.66
2022-08-17T17:52:40.987Z,27.45
2022-08-17T17:55:19.869Z,27.21
2022-08-17T17:57:58.422Z,26.86
2022-08-17T18:00:34.367Z,26.47
2022-08-17T18:03:23.917Z,26.21
2022-08-17T18:06:15.129Z,25.87
2022-08-17T18:08:57.218Z,25.71
2022-08-17T18:11:38.086Z,25.52
2022-08-17T18:14:15.414Z,25.14
2022-08-17T18:16:45.451Z,24.99
2022-08-17T18:19:15.095Z,24.83
2022-08-17T18:21:46.448Z,24.70
2022-08-17T18:24:14.935Z,24.55
2022-08-17T18:26:46.945Z,24.51
2022-08-17T18:29:35.874Z,24.40
2022-08-17T18:32:29.870Z,24.24
2022-08-17T18:34:59.999Z,24.00
2022-08-17T18:37:34.922Z,23.71
2022-08-17T18:40:30.318Z,23.57
2022-08-17T18:43:03.307Z,23.44
2022-08-17T18:45:38.253Z,23.47
2022-08-17T18:48:20.011Z,23.26
2022-08-17T18:50:48.321Z,23.29
2022-08-17T18:53:36.441Z,23.13
2022-08-17T18:56:19.121Z,22.96
2022-08-17T18:58:52.182Z,22.84
2022-08-17T19:01:22.487Z,22.69
2022-08-17T19:04:33.981Z,22.56
2022-08-17T19:07:13.469Z,22.39
2022-08-17T19:09:45.574Z,22.45
2022-08-17T19:12:28.144Z,22.41
2022-08-17T19:14:57.540Z,22.29
2022-08-17T19:17:35.384Z,22.07
2022-08-17T19:20:10.014Z,21.82
2022-08-17T19:22:49.662Z,21.78
2022-08-17T19:25:22.666Z,21.78
2022-08-17T19:27:57.298Z,21.64
2022-08-17T19:30:26.292Z,21.63
2022-08-17T19:32:54.329Z,21.52
2022-08-17T19:35:26.750Z,21.23
2022-08-17T19:38:04.588Z,21.10
2022-08-17T19:40:54.278Z,21.04
2022-08-17T19:43:28.485Z,20.88
2022-08-17T19:46:03.849Z,20.78
2022-08-17T19:48:41.818Z,20.68
2022-08-17T19:51:15.330Z,20.74
2022-08-17T19:54:05.068Z,20.62
2022-08-17T19:56:40.363Z,20.65
2022-08-17T19:59:14.617Z,20.39
2022-08-17T20:01:46.766Z,20.21
2022-08-17T20:04:19.484Z,20.27
2022-08-17T20:06:50.305Z,20.32
2022-08-17T20:09:22.244Z,20.39
2022-08-17T20:11:55.896Z,20.21
2022-08-17T20:14:31.573Z,20.19
2022-08-17T20:17:02.828Z,20.43
2022-08-17T20:19:38.188Z,20.21
2022-08-17T20:22:11.997Z,20.11
2022-08-17T20:24:43.691Z,20.37
2022-08-17T20:27:15.391Z,20.25
2022-08-17T20:30:03.673Z,20.27
2022-08-17T20:32:35.296Z,20.35
2022-08-17T20:35:10.181Z,20.23
2022-08-17T20:37:44.821Z,20.23
2022-08-17T20:40:20.586Z,20.15
2022-08-17T20:42:48.714Z,20.46
2022-08-17T20:45:54.021Z,20.09
2022-08-17T20:48:37.442Z,19.95
2022-08-17T20:51:18.450Z,19.69
2022-08-17T20:54:34.011Z,19.67
2022-08-17T20:57:06.113Z,19.55
2022-08-17T20:59:56.951Z,19.62
2022-08-17T21:02:27.577Z,19.65
2022-08-17T21:05:17.865Z,19.52
2022-08-17T21:07:55.765Z,19.36
2022-08-17T21:10:41.254Z,19.28
2022-08-17T21:13:37.594Z,19.47
2022-08-17T21:16:11.918Z,19.54
2022-08-17T21:18:47.607Z,19.39
2022-08-17T21:21:24.242Z,19.63
2022-08-17T21:24:19.327Z,19.52
2022-08-17T21:26:55.535Z,19.50
2022-08-17T21:29:31.806Z,19.41
2022-08-17T21:32:24.199Z,19.36
2022-08-17T21:35:29.122Z,19.35
2022-08-17T21:38:02.378Z,19.18
2022-08-17T21:40:32.236Z,19.13
2022-08-17T21:43:03.237Z,19.11
2022-08-17T21:45:36.084Z,19.13
2022-08-17T21:48:09.638Z,18.93
2022-08-17T21:50:38.790Z,18.86
2022-08-17T21:53:08.801Z,18.78
2022-08-17T21:55:37.587Z,18.75
2022-08-17T21:58:14.604Z,19.12
2022-08-17T22:00:45.192Z,19.03
2022-08-17T22:03:24.673Z,18.97
2022-08-17T22:05:52.669Z,18.85
2022-08-17T22:08:23.642Z,18.82
2022-08-17T22:10:57.861Z,18.91
2022-08-17T22:13:29.855Z,19.02
2022-08-17T22:16:15.441Z,18.81
2022-08-17T22:18:58.147Z,18.48
2022-08-17T22:21:26.777Z,18.42
2022-08-17T22:24:07.079Z,18.44
2022-08-17T22:27:06.962Z,18.34
2022-08-17T22:29:57.167Z,18.25
2022-08-17T22:32:41.383Z,18.20
2022-08-17T22:35:35.349Z,18.21
2022-08-17T22:38:30.967Z,18.23
2022-08-17T22:41:21.930Z,18.25
2022-08-17T22:43:50.681Z,18.32
2022-08-17T22:46:21.095Z,18.58
2022-08-17T22:48:53.810Z,18.47
2022-08-17T22:51:23.982Z,18.70
2022-08-17T22:54:11.775Z,18.36
2022-08-17T22:56:58.927Z,18.55
2022-08-17T22:59:46.519Z,18.52
2022-08-17T23:02:21.756Z,18.36
2022-08-17T23:04:54.118Z,18.13
2022-08-17T23:07:22.596Z,18.13
2022-08-17T23:09:50.621Z,18.01
2022-08-17T23:12:24.470Z,18.12
2022-08-17T23:14:58.489Z,18.20
2022-08-17T23:17:27.580Z,18.21
2022-08-17T23:19:57.274Z,18.22
2022-08-17T23:22:25.914Z,18.17
2022-08-17T23:24:53.958Z,18.36
2022-08-17T23:27:23.173Z,17.98
2022-08-17T23:29:51.526Z,18.07
2022-08-17T23:32:19.866Z,18.19
2022-08-17T23:34:49.509Z,17.93
2022-08-17T23:37:19.604Z,17.85
2022-08-17T23:39:47.687Z,17.72
2022-08-17T23:42:21.693Z,17.94
2022-08-17T23:44:49.749Z,18.08
2022-08-17T23:47:17.902Z,17.95
2022-08-17T23:49:45.890Z,17.73
2022-08-17T23:52:16.497Z,17.44
2022-08-17T23:54:47.718Z,17.56
2022-08-17T23:57:19.900Z,17.38
